createdAt,value
2022-08-24T00:00:51.787Z,98206.78
2022-08-24T00:03:22.312Z,98210.09
2022-08-24T00:05:53.674Z,98205.41
2022-08-24T00:08:24.192Z,98209.81
2022-08-24T00:10:55.134Z,98212.38
2022-08-24T00:13:25.150Z,98209.84
2022-08-24T00:16:02.458Z,98208.63
2022-08-24T00:18:33.553Z,98202.25
2022-08-24T00:21:04.743Z,98204.03
2022-08-24T00:23:35.294Z,98205.38
2022-08-24T00:26:05.366Z,98205.25
2022-08-24T00:28:36.223Z,98211.09
2022-08-24T00:31:09.454Z,98205.06
2022-08-24T00:33:40.960Z,98217.84
2022-08-24T00:36:11.507Z,98213.75
2022-08-24T00:38:41.491Z,98211.47
2022-08-24T00:41:11.524Z,98210.31
2022-08-24T00:43:41.514Z,98212.78
2022-08-24T00:46:31.133Z,98218.72
2022-08-24T00:49:09.477Z,98205.91
2022-08-24T00:51:46.173Z,98206.47
2022-08-24T00:54:20.888Z,98206.91
2022-08-24T00:56:56.905Z,98213.59
2022-08-24T00:59:32.662Z,98212.47
2022-08-24T01:02:15.225Z,98207.75
2022-08-24T01:04:55.090Z,98212.16
2022-08-24T01:07:27.578Z,98216.16
2022-08-24T01:10:02.544Z,98217.38
2022-08-24T01:12:37.293Z,98215.81
2022-08-24T01:15:13.199Z,98216.81
2022-08-24T01:17:59.022Z,98218.38
2022-08-24T01:20:29.377Z,98221.16
2022-08-24T01:23:09.459Z,98221.00
2022-08-24T01:25:46.075Z,98218.06
2022-08-24T01:28:27.215Z,98219.84
2022-08-24T01:30:58.666Z,98210.78
2022-08-24T01:33:34.199Z,98214.78
2022-08-24T01:36:12.480Z,98220.34
2022-08-24T01:38:43.269Z,98215.03
2022-08-24T01:41:15.901Z,98219.00
2022-08-24T01:43:46.189Z,98218.38
2022-08-24T01:46:16.279Z,98227.44
2022-08-24T01:48:46.896Z,98229.31
2022-08-24T01:51:16.883Z,98235.06
2022-08-24T01:53:46.932Z,98235.06
2022-08-24T01:56:20.677Z,98233.13
2022-08-24T01:58:52.482Z,98235.72
2022-08-24T02:01:22.975Z,98234.94
2022-08-24T02:03:53.141Z,98235.47
2022-08-24T02:06:24.532Z,98230.31
2022-08-24T02:08:54.851Z,98236.25
2022-08-24T02:11:27.694Z,98232.59
2022-08-24T02:14:01.046Z,98233.41
2022-08-24T02:16:31.630Z,98234.88
2022-08-24T02:19:02.003Z,98236.06
2022-08-24T02:21:32.100Z,98239.19
2022-08-24T02:24:02.489Z,98236.63
2022-08-24T02:26:35.137Z,98235.66
2022-08-24T02:29:05.233Z,98243.16
2022-08-24T02:31:37.016Z,98241.00
2022-08-24T02:34:07.904Z,98235.13
2022-08-24T02:36:37.964Z,98238.13
2022-08-24T02:39:10.061Z,98240.47
2022-08-24T02:41:43.595Z,98241.06
2022-08-24T02:44:13.819Z,98236.94
2022-08-24T02:46:45.120Z,98234.22
2022-08-24T02:49:15.747Z,98230.69
2022-08-24T02:51:49.569Z,98237.41
2022-08-24T02:54:22.923Z,98237.81
2022-08-24T02:56:58.180Z,98238.78
2022-08-24T02:59:28.231Z,98246.47
2022-08-24T03:01:58.369Z,98244.31
2022-08-24T03:04:29.439Z,98240.94
2022-08-24T03:06:59.645Z,98233.66
2022-08-24T03:09:29.634Z,98234.84
2022-08-24T03:12:03.897Z,98230.75
2022-08-24T03:14:35.821Z,98242.34
2022-08-24T03:17:06.883Z,98231.53
2022-08-24T03:19:36.941Z,98235.66
2022-08-24T03:22:07.613Z,98234.09
2022-08-24T03:24:37.870Z,98231.16
2022-08-24T03:27:10.484Z,98236.25
2022-08-24T03:29:40.719Z,98235.69
2022-08-24T03:32:10.885Z,98231.94
2022-08-24T03:34:41.031Z,98233.94
2022-08-24T03:37:11.198Z,98232.34
2022-08-24T03:39:41.301Z,98224.88
2022-08-24T03:42:13.992Z,98231.59
2022-08-24T03:44:44.295Z,98226.91
2022-08-24T03:47:14.519Z,98229.25
2022-08-24T03:49:45.070Z,98237.66
2022-08-24T03:52:15.572Z,98229.44
2022-08-24T03:54:47.306Z,98238.28
2022-08-24T03:57:19.874Z,98237.09
2022-08-24T03:59:49.877Z,98237.84
2022-08-24T04:02:20.013Z,98232.38
2022-08-24T04:04:50.145Z,98240.25
2022-08-24T04:07:20.219Z,98236.91
2022-08-24T04:09:50.297Z,98236.91
2022-08-24T04:12:23.424Z,98241.41
2022-08-24T04:14:55.941Z,98248.06
2022-08-24T04:17:27.200Z,98252.00
2022-08-24T04:20:00.181Z,98249.44
2022-08-24T04:22:35.364Z,98244.56
2022-08-24T04:25:09.263Z,98244.16
2022-08-24T04:27:44.308Z,98238.84
2022-08-24T04:30:16.865Z,98241.41
2022-08-24T04:33:07.252Z,98246.53
2022-08-24T04:35:41.659Z,98257.56
2022-08-24T04:38:12.527Z,98252.06
2022-08-24T04:40:49.920Z,98252.81
2022-08-24T04:43:23.648Z,98258.72
2022-08-24T04:45:53.737Z,98265.59
2022-08-24T04:48:24.235Z,98262.25
2022-08-24T04:50:54.300Z,98270.50
2022-08-24T04:53:25.744Z,98265.41
2022-08-24T04:55:55.790Z,98266.38
2022-08-24T04:58:33.005Z,98269.69
2022-08-24T05:01:03.262Z,98273.03
2022-08-24T05:03:33.380Z,98276.91
2022-08-24T05:06:03.730Z,98283.78
2022-08-24T05:08:34.696Z,98275.09
2022-08-24T05:11:09.406Z,98277.19
2022-08-24T05:13:42.377Z,98282.31
2022-08-24T05:16:17.846Z,98278.75
2022-08-24T05:18:49.099Z,98289.00
2022-08-24T05:21:25.030Z,98288.84
2022-08-24T05:23:57.789Z,98287.97
2022-08-24T05:26:34.088Z,98295.22
2022-08-24T05:29:06.917Z,98287.81
2022-08-24T05:31:52.451Z,98286.47
2022-08-24T05:34:22.576Z,98294.56
2022-08-24T05:36:53.816Z,98292.69
2022-08-24T05:39:43.826Z,98291.41
2022-08-24T05:42:13.807Z,98295.53
2022-08-24T05:44:52.339Z,98300.94
2022-08-24T05:47:25.036Z,98297.31
2022-08-24T05:49:56.454Z,98293.16
2022-08-24T05:52:27.065Z,98306.53
2022-08-24T05:55:01.942Z,98308.00
2022-08-24T05:57:38.188Z,98314.88
2022-08-24T06:00:27.703Z,98322.06
2022-08-24T06:02:57.805Z,98320.00
2022-08-24T06:05:27.888Z,98316.88
2022-08-24T06:07:58.023Z,98318.38
2022-08-24T06:10:37.250Z,98318.03
2022-08-24T06:13:09.374Z,98325.31
2022-08-24T06:15:50.977Z,98321.66
2022-08-24T06:18:29.608Z,98320.16
2022-08-24T06:20:59.699Z,98313.97
2022-08-24T06:23:30.352Z,98312.81
2022-08-24T06:26:20.162Z,98308.38
2022-08-24T06:28:52.994Z,98310.28
2022-08-24T06:31:27.646Z,98307.88
2022-08-24T06:33:58.177Z,98308.75
2022-08-24T06:36:28.772Z,98300.84
2022-08-24T06:39:00.495Z,98299.00
2022-08-24T06:41:30.988Z,98299.13
2022-08-24T06:44:01.215Z,98303.00
2022-08-24T06:46:50.199Z,98298.19
2022-08-24T06:49:20.951Z,98301.66
2022-08-24T06:51:51.128Z,98303.56
2022-08-24T06:54:22.623Z,98300.13
2022-08-24T06:56:53.046Z,98309.19
2022-08-24T06:59:23.112Z,98311.16
2022-08-24T07:01:56.269Z,98314.47
2022-08-24T07:04:31.191Z,98314.84
2022-08-24T07:07:20.137Z,98323.13
2022-08-24T07:09:51.002Z,98320.41
2022-08-24T07:12:20.995Z,98327.31
2022-08-24T07:14:50.995Z,98330.09
2022-08-24T07:17:24.282Z,98328.84
2022-08-24T07:19:54.354Z,98327.25
2022-08-24T07:22:44.736Z,98331.00
2022-08-24T07:25:16.138Z,98333.50
2022-08-24T07:27:46.433Z,98331.16
2022-08-24T07:30:26.926Z,98331.88
2022-08-24T07:33:01.919Z,98334.03
2022-08-24T07:35:36.307Z,98335.16
2022-08-24T07:38:08.358Z,98333.72
2022-08-24T07:40:58.443Z,98337.31
2022-08-24T07:43:29.355Z,98330.53
2022-08-24T07:45:59.495Z,98324.44
2022-08-24T07:48:32.708Z,98333.28
2022-08-24T07:51:11.539Z,98336.91
2022-08-24T07:53:53.681Z,98339.78
2022-08-24T07:56:28.632Z,98345.22
2022-08-24T07:59:01.132Z,98337.75
2022-08-24T08:01:31.253Z,98328.06
2022-08-24T08:04:04.281Z,98330.56
2022-08-24T08:06:34.490Z,98336.63
2022-08-24T08:09:07.159Z,98324.00
2022-08-24T08:11:37.229Z,98325.56
2022-08-24T08:14:08.058Z,98326.44
2022-08-24T08:16:38.433Z,98330.84
2022-08-24T08:19:11.475Z,98319.41
2022-08-24T08:21:59.668Z,98324.22
2022-08-24T08:24:30.287Z,98322.94
2022-08-24T08:27:01.567Z,98318.41
2022-08-24T08:29:40.613Z,98328.75
2022-08-24T08:32:14.809Z,98324.72
2022-08-24T08:34:47.736Z,98319.19
2022-08-24T08:37:18.870Z,98312.56
2022-08-24T08:39:49.455Z,98325.09
2022-08-24T08:42:41.244Z,98308.78
2022-08-24T08:45:29.720Z,98306.94
2022-08-24T08:49:21.856Z,98310.66
2022-08-24T08:52:34.514Z,98305.97
2022-08-24T08:55:29.291Z,98304.41
2022-08-24T08:58:25.443Z,98301.84
2022-08-24T09:01:08.055Z,98295.91
2022-08-24T09:04:21.223Z,98292.63
2022-08-24T09:07:34.093Z,98297.28
2022-08-24T09:10:39.092Z,98286.72
2022-08-24T09:13:27.520Z,98290.16
2022-08-24T09:16:31.612Z,98285.75
2022-08-24T09:19:32.063Z,98292.44
2022-08-24T09:22:14.839Z,98292.22
2022-08-24T09:25:26.286Z,98288.84
2022-08-24T09:28:37.345Z,98288.28
2022-08-24T09:31:56.420Z,98291.38
2022-08-24T09:34:42.246Z,98279.78
2022-08-24T09:37:46.537Z,98285.13
2022-08-24T09:40:42.691Z,98286.47
2022-08-24T09:43:53.470Z,98285.19
2022-08-24T09:47:21.178Z,98278.47
2022-08-24T09:50:34.694Z,98279.47
2022-08-24T09:54:02.023Z,98275.81
2022-08-24T09:57:12.455Z,98273.03
2022-08-24T10:00:13.803Z,98273.44
2022-08-24T10:03:04.186Z,98267.97
2022-08-24T10:06:00.359Z,98270.75
2022-08-24T10:08:51.430Z,98259.13
2022-08-24T10:11:36.583Z,98264.06
2022-08-24T10:14:23.815Z,98253.94
2022-08-24T10:17:12.520Z,98267.88
2022-08-24T10:20:10.449Z,98266.81
2022-08-24T10:23:06.045Z,98255.84
2022-08-24T10:25:43.478Z,98252.06
2022-08-24T10:28:53.594Z,98244.69
2022-08-24T10:31:37.025Z,98246.66
2022-08-24T10:34:31.469Z,98245.75
2022-08-24T10:37:28.935Z,98240.47
2022-08-24T10:40:28.194Z,98238.25
2022-08-24T10:43:36.597Z,98235.81
2022-08-24T10:46:54.348Z,98227.50
2022-08-24T10:50:22.101Z,98229.56
2022-08-24T10:53:25.753Z,98233.34
2022-08-24T10:56:19.122Z,98238.16
2022-08-24T10:59:13.036Z,98232.16
2022-08-24T11:02:01.017Z,98227.88
2022-08-24T11:04:37.697Z,98236.91
2022-08-24T11:07:19.339Z,98236.03
2022-08-24T11:09:56.432Z,98233.81
2022-08-24T11:12:32.340Z,98233.00
2022-08-24T11:15:06.506Z,98240.59
2022-08-24T11:17:37.592Z,98234.94
2022-08-24T11:20:30.943Z,98238.75
2022-08-24T11:23:07.907Z,98223.69
2022-08-24T11:25:41.255Z,98225.75
2022-08-24T11:28:26.063Z,98225.28
2022-08-24T11:30:56.091Z,98216.22
2022-08-24T11:33:35.835Z,98204.22
2022-08-24T11:36:21.164Z,98210.56
2022-08-24T11:39:17.835Z,98201.59
2022-08-24T11:42:00.241Z,98208.88
2022-08-24T11:44:44.159Z,98210.97
2022-08-24T11:47:44.727Z,98212.88
2022-08-24T11:50:33.725Z,98205.91
2022-08-24T11:53:25.039Z,98213.09
2022-08-24T11:56:20.400Z,98210.69
2022-08-24T11:59:02.341Z,98213.31
2022-08-24T12:01:44.518Z,98213.44
2022-08-24T12:04:42.279Z,98219.00
2022-08-24T12:07:31.905Z,98209.09
2022-08-24T12:10:19.389Z,98211.91
2022-08-24T12:13:02.811Z,98215.47
2022-08-24T12:15:51.793Z,98211.56
2022-08-24T12:18:33.351Z,98208.69
2022-08-24T12:21:03.861Z,98205.53
2022-08-24T12:23:40.456Z,98193.53
2022-08-24T12:26:16.758Z,98205.38
2022-08-24T12:28:56.083Z,98187.59
2022-08-24T12:31:40.871Z,98181.66
2022-08-24T12:34:19.452Z,98184.94
2022-08-24T12:37:03.738Z,98197.09
2022-08-24T12:39:49.292Z,98179.38
2022-08-24T12:42:27.917Z,98186.16
2022-08-24T12:45:09.628Z,98187.63
2022-08-24T12:47:53.023Z,98196.34
2022-08-24T12:50:32.355Z,98186.53
2022-08-24T12:53:39.438Z,98185.44
2022-08-24T12:56:40.068Z,98186.41
2022-08-24T12:59:23.231Z,98181.38
2022-08-24T13:02:05.764Z,98182.91
2022-08-24T13:04:43.287Z,98185.19
2022-08-24T13:07:31.790Z,98178.78
2022-08-24T13:10:17.027Z,98186.81
2022-08-24T13:13:25.936Z,98182.63
2022-08-24T13:16:04.671Z,98183.03
2022-08-24T13:19:18.651Z,98173.81
2022-08-24T13:21:58.754Z,98171.25
2022-08-24T13:25:24.778Z,98173.88
2022-08-24T13:28:10.366Z,98170.31
2022-08-24T13:31:12.839Z,98170.72
2022-08-24T13:33:50.997Z,98175.09
2022-08-24T13:36:52.357Z,98172.16
2022-08-24T13:39:53.017Z,98162.38
2022-08-24T13:43:09.416Z,98168.16
2022-08-24T13:45:51.117Z,98168.03
2022-08-24T13:48:48.548Z,98172.00
2022-08-24T13:51:35.706Z,98158.81
2022-08-24T13:54:29.501Z,98159.81
2022-08-24T13:57:36.670Z,98166.44
2022-08-24T14:00:35.445Z,98162.81
2022-08-24T14:03:23.767Z,98158.09
2022-08-24T14:05:59.879Z,98154.63
2022-08-24T14:08:53.412Z,98153.06
2022-08-24T14:11:50.503Z,98151.16
2022-08-24T14:14:41.295Z,98155.69
2022-08-24T14:17:37.791Z,98146.56
2022-08-24T14:20:22.359Z,98156.50
2022-08-24T14:23:06.002Z,98141.31
2022-08-24T14:25:39.141Z,98138.19
2022-08-24T14:28:39.007Z,98144.94
2022-08-24T14:31:28.205Z,98149.47
2022-08-24T14:34:25.020Z,98138.50
2022-08-24T14:37:07.796Z,98143.25
2022-08-24T14:39:48.239Z,98133.00
2022-08-24T14:42:24.584Z,98133.78
2022-08-24T14:45:06.864Z,98139.94
2022-08-24T14:48:02.853Z,98133.38
2022-08-24T14:50:41.318Z,98136.03
2022-08-24T14:53:34.658Z,98140.78
2022-08-24T14:56:17.128Z,98142.31
2022-08-24T14:59:05.254Z,98132.19
2022-08-24T15:01:50.890Z,98129.38
2022-08-24T15:04:48.346Z,98116.91
2022-08-24T15:07:36.453Z,98127.16
2022-08-24T15:10:17.127Z,98123.03
2022-08-24T15:12:58.991Z,98126.22
2022-08-24T15:15:40.169Z,98116.28
2022-08-24T15:18:27.713Z,98116.03
2022-08-24T15:21:12.532Z,98120.34
2022-08-24T15:23:57.039Z,98119.59
2022-08-24T15:26:47.715Z,98122.28
2022-08-24T15:29:22.606Z,98112.22
2022-08-24T15:32:08.011Z,98123.81
2022-08-24T15:34:46.493Z,98125.88
2022-08-24T15:37:20.182Z,98132.56
2022-08-24T15:39:50.272Z,98115.00
2022-08-24T15:42:20.875Z,98121.78
2022-08-24T15:44:53.592Z,98123.84
2022-08-24T15:47:31.414Z,98119.91
2022-08-24T15:50:09.587Z,98114.19
2022-08-24T15:52:51.906Z,98124.66
2022-08-24T15:55:41.152Z,98121.78
2022-08-24T15:58:36.806Z,98122.34
2022-08-24T16:01:37.798Z,98123.09
2022-08-24T16:04:11.640Z,98133.97
2022-08-24T16:06:47.956Z,98129.19
2022-08-24T16:09:39.207Z,98128.00
2022-08-24T16:12:16.495Z,98125.38
2022-08-24T16:14:50.803Z,98123.53
2022-08-24T16:17:30.552Z,98123.47
2022-08-24T16:20:04.879Z,98116.78
2022-08-24T16:22:43.180Z,98119.78
2022-08-24T16:25:31.166Z,98125.84
2022-08-24T16:28:11.782Z,98122.91
2022-08-24T16:30:51.135Z,98113.03
2022-08-24T16:33:44.199Z,98117.13
2022-08-24T16:36:18.412Z,98118.31
2022-08-24T16:38:54.191Z,98123.53
2022-08-24T16:41:27.637Z,98125.59
2022-08-24T16:43:57.823Z,98127.50
2022-08-24T16:46:27.931Z,98118.41
2022-08-24T16:48:58.068Z,98117.09
2022-08-24T16:51:28.623Z,98110.44
2022-08-24T16:54:01.269Z,98121.41
2022-08-24T16:56:32.061Z,98126.75
2022-08-24T16:59:02.332Z,98127.47
2022-08-24T17:01:32.654Z,98121.88
2022-08-24T17:04:02.686Z,98136.59
2022-08-24T17:06:33.494Z,98128.22
2022-08-24T17:09:06.697Z,98136.53
2022-08-24T17:11:39.343Z,98129.34
2022-08-24T17:14:09.638Z,98124.28
2022-08-24T17:16:40.418Z,98120.88
2022-08-24T17:19:17.007Z,98130.13
2022-08-24T17:21:47.580Z,98126.81
2022-08-24T17:24:25.250Z,98128.69
2022-08-24T17:26:56.814Z,98136.31
2022-08-24T17:29:28.549Z,98134.22
2022-08-24T17:31:59.420Z,98133.06
2022-08-24T17:34:30.308Z,98135.94
2022-08-24T17:37:01.716Z,98138.00
2022-08-24T17:39:35.035Z,98137.53
2022-08-24T17:42:16.527Z,98140.50
2022-08-24T17:44:55.312Z,98148.69
2022-08-24T17:47:25.614Z,98147.59
2022-08-24T17:49:56.966Z,98154.91
2022-08-24T17:52:26.927Z,98157.31
2022-08-24T17:54:59.579Z,98157.94
2022-08-24T17:57:30.595Z,98163.03
2022-08-24T18:00:00.758Z,98161.44
2022-08-24T18:02:31.239Z,98169.63
2022-08-24T18:05:01.286Z,98164.03
2022-08-24T18:07:51.794Z,98165.38
2022-08-24T18:10:28.197Z,98170.56
2022-08-24T18:12:59.916Z,98165.91
2022-08-24T18:15:36.121Z,98170.06
2022-08-24T18:18:10.356Z,98169.34
2022-08-24T18:20:44.105Z,98169.00
2022-08-24T18:23:14.453Z,98174.28
2022-08-24T18:25:54.884Z,98170.53
2022-08-24T18:28:25.722Z,98174.34
2022-08-24T18:30:56.440Z,98169.19
2022-08-24T18:33:26.423Z,98178.09
2022-08-24T18:35:56.922Z,98178.34
2022-08-24T18:38:29.157Z,98176.22
2022-08-24T18:41:04.253Z,98180.78
2022-08-24T18:43:34.442Z,98184.53
2022-08-24T18:46:04.902Z,98179.91
2022-08-24T18:48:35.123Z,98182.63
2022-08-24T18:51:06.187Z,98183.69
2022-08-24T18:53:37.074Z,98186.63
2022-08-24T18:56:12.415Z,98179.72
2022-08-24T18:58:43.099Z,98177.97
2022-08-24T19:01:14.906Z,98190.22
2022-08-24T19:03:45.828Z,98188.19
2022-08-24T19:06:15.818Z,98193.91
2022-08-24T19:08:46.452Z,98195.53
2022-08-24T19:11:21.666Z,98196.56
2022-08-24T19:13:51.847Z,98200.25
2022-08-24T19:16:22.277Z,98194.06
2022-08-24T19:18:52.261Z,98203.16
2022-08-24T19:21:22.753Z,98204.97
2022-08-24T19:23:52.792Z,98205.75
2022-08-24T19:26:25.492Z,98214.88
2022-08-24T19:28:57.146Z,98210.72
2022-08-24T19:31:31.035Z,98217.22
2022-08-24T19:34:03.686Z,98209.66
2022-08-24T19:36:33.881Z,98211.00
2022-08-24T19:39:04.267Z,98215.41
2022-08-24T19:41:41.151Z,98213.31
2022-08-24T19:44:27.874Z,98212.53
2022-08-24T19:46:59.415Z,98209.41
2022-08-24T19:49:29.446Z,98215.38
2022-08-24T19:52:01.179Z,98215.91
2022-08-24T19:54:38.296Z,98207.59
2022-08-24T19:57:48.509Z,98213.81
2022-08-24T20:00:36.475Z,98220.00
2022-08-24T20:03:08.741Z,98214.56
2022-08-24T20:05:39.530Z,98217.94
2022-08-24T20:08:11.128Z,98223.09
2022-08-24T20:10:41.431Z,98227.78
2022-08-24T20:13:14.071Z,98221.59
2022-08-24T20:15:44.335Z,98221.84
2022-08-24T20:18:14.668Z,98224.97
2022-08-24T20:20:46.425Z,98219.78
2022-08-24T20:23:19.326Z,98213.28
2022-08-24T20:25:49.479Z,98216.94
2022-08-24T20:28:29.286Z,98216.41
2022-08-24T20:31:00.141Z,98219.78
2022-08-24T20:33:30.444Z,98217.16
2022-08-24T20:36:00.788Z,98214.78
2022-08-24T20:38:32.250Z,98222.56
2022-08-24T20:41:03.170Z,98212.66
2022-08-24T20:43:35.857Z,98222.47
2022-08-24T20:46:06.921Z,98220.91
2022-08-24T20:48:41.493Z,98224.25
2022-08-24T20:51:13.384Z,98221.88
2022-08-24T20:53:43.488Z,98218.78
2022-08-24T20:56:20.806Z,98211.25
2022-08-24T20:59:04.476Z,98216.13
2022-08-24T21:01:35.958Z,98214.81
2022-08-24T21:04:07.265Z,98212.69
2022-08-24T21:06:38.276Z,98215.50
2022-08-24T21:09:10.391Z,98214.41
2022-08-24T21:11:46.386Z,98210.72
2022-08-24T21:14:19.973Z,98218.97
2022-08-24T21:16:50.581Z,98210.13
2022-08-24T21:19:20.626Z,98216.28
2022-08-24T21:21:50.764Z,98219.38
2022-08-24T21:24:21.069Z,98232.72
2022-08-24T21:26:51.263Z,98221.78
2022-08-24T21:29:23.910Z,98220.75
2022-08-24T21:32:06.493Z,98216.56
2022-08-24T21:34:45.631Z,98221.19
2022-08-24T21:37:20.285Z,98226.31
2022-08-24T21:39:50.576Z,98221.13
2022-08-24T21:42:21.539Z,98221.91
2022-08-24T21:44:54.082Z,98219.88
2022-08-24T21:47:24.069Z,98222.66
2022-08-24T21:49:54.751Z,98216.91
2022-08-24T21:52:25.542Z,98225.13
2022-08-24T21:54:56.377Z,98222.47
2022-08-24T21:57:27.701Z,98220.63
2022-08-24T22:00:00.263Z,98221.72
2022-08-24T22:02:31.246Z,98218.78
2022-08-24T22:05:01.728Z,98214.09
2022-08-24T22:07:31.747Z,98222.56
2022-08-24T22:10:02.185Z,98218.19
2022-08-24T22:12:32.210Z,98217.63
2022-08-24T22:15:05.091Z,98204.19
2022-08-24T22:17:35.362Z,98207.78
2022-08-24T22:20:06.967Z,98212.72
2022-08-24T22:22:37.808Z,98206.84
2022-08-24T22:25:12.788Z,98210.19
2022-08-24T22:27:45.275Z,98208.09
2022-08-24T22:30:21.510Z,98204.81
2022-08-24T22:32:51.515Z,98205.78
2022-08-24T22:35:21.766Z,98212.19
2022-08-24T22:37:51.803Z,98213.50
2022-08-24T22:40:22.164Z,98208.94
2022-08-24T22:42:52.260Z,98207.72
2022-08-24T22:45:25.052Z,98206.13
2022-08-24T22:47:55.349Z,98202.47
2022-08-24T22:50:25.356Z,98205.59
2022-08-24T22:52:56.224Z,98203.47
2022-08-24T22:55:26.211Z,98197.78
2022-08-24T22:57:56.276Z,98200.59
2022-08-24T23:00:28.860Z,98191.53
2022-08-24T23:02:58.889Z,98197.38
2022-08-24T23:05:29.200Z,98186.00
2022-08-24T23:07:59.987Z,98191.88
2022-08-24T23:10:30.466Z,98183.06
2022-08-24T23:13:00.584Z,98184.94
2022-08-24T23:15:33.461Z,98181.31
2022-08-24T23:18:23.419Z,98186.47
2022-08-24T23:20:50.814Z,98185.88
2022-08-24T23:23:21.409Z,98181.50
2022-08-24T23:25:51.940Z,98178.66
2022-08-24T23:28:22.016Z,98175.03
2022-08-24T23:30:54.587Z,98180.28
2022-08-24T23:33:24.607Z,98177.28
2022-08-24T23:36:00.142Z,98178.47
2022-08-24T23:38:32.746Z,98182.03
2022-08-24T23:41:02.885Z,98172.03
2022-08-24T23:43:32.945Z,98176.94
2022-08-24T23:46:06.325Z,98171.19
2022-08-24T23:48:37.757Z,98171.19
2022-08-24T23:51:10.362Z,98165.34
2022-08-24T23:53:46.648Z,98165.28
2022-08-24T23:56:21.712Z,98156.69
2022-08-24T23:58:53.224Z,98157.69
